createdAt,value
2019-05-06T00:00:00.952Z,1003.49
2019-05-06T00:01:00.948Z,1003.52
2019-05-06T00:02:00.919Z,1003.53
2019-05-06T00:03:00.909Z,1003.49
2019-05-06T00:04:01.097Z,1003.50
2019-05-06T00:05:00.890Z,1003.47
2019-05-06T00:06:00.903Z,1003.48
2019-05-06T00:07:00.873Z,1003.53
2019-05-06T00:08:00.853Z,1003.54
2019-05-06T00:09:00.842Z,1003.50
2019-05-06T00:10:00.831Z,1003.56
2019-05-06T00:11:00.817Z,1003.52
2019-05-06T00:12:00.834Z,1003.55
2019-05-06T00:13:00.799Z,1003.44
2019-05-06T00:14:00.785Z,1003.48
2019-05-06T00:15:00.783Z,1003.52
2019-05-06T00:16:00.764Z,1003.51
2019-05-06T00:17:00.751Z,1003.51
2019-05-06T00:18:00.771Z,1003.48
2019-05-06T00:19:00.729Z,1003.51
2019-05-06T00:20:00.717Z,1003.51
2019-05-06T00:21:00.706Z,1003.52
2019-05-06T00:22:00.698Z,1003.50
2019-05-06T00:23:00.684Z,1003.57
2019-05-06T00:24:00.691Z,1003.57
2019-05-06T00:25:00.660Z,1003.52
2019-05-06T00:26:00.653Z,1003.50
2019-05-06T00:27:00.637Z,1003.53
2019-05-06T00:28:00.628Z,1003.54
2019-05-06T00:29:00.645Z,1003.53
2019-05-06T00:30:00.608Z,1003.49
2019-05-06T00:31:10.346Z,1003.55
2019-05-06T00:32:01.591Z,1003.56
2019-05-06T00:33:00.574Z,1003.55
2019-05-06T00:34:00.563Z,1003.55
2019-05-06T00:35:00.576Z,1003.56
2019-05-06T00:36:00.693Z,1003.54
2019-05-06T00:37:00.527Z,1003.60
2019-05-06T00:38:00.514Z,1003.55
2019-05-06T00:39:00.504Z,1003.56
2019-05-06T00:40:00.498Z,1003.59
2019-05-06T00:41:00.500Z,1003.59
2019-05-06T00:42:00.470Z,1003.60
2019-05-06T00:43:00.461Z,1003.55
2019-05-06T00:44:00.448Z,1003.57
2019-05-06T00:45:00.436Z,1003.55
2019-05-06T00:46:00.445Z,1003.59
2019-05-06T00:47:00.414Z,1003.58
2019-05-06T00:48:00.403Z,1003.58
2019-05-06T00:49:00.391Z,1003.57
2019-05-06T00:50:00.378Z,1003.56
2019-05-06T00:51:00.385Z,1003.56
2019-05-06T00:52:00.363Z,1003.63
2019-05-06T00:53:00.345Z,1003.61
2019-05-06T00:54:00.334Z,1003.58
2019-05-06T00:55:00.323Z,1003.66
2019-05-06T00:56:00.328Z,1003.61
2019-05-06T00:57:00.301Z,1003.59
2019-05-06T00:58:00.289Z,1003.64
2019-05-06T00:59:00.279Z,1003.59
2019-05-06T01:00:00.266Z,1003.56
2019-05-06T01:01:00.274Z,1003.61
2019-05-06T01:02:00.242Z,1003.60
2019-05-06T01:03:00.234Z,1003.57
2019-05-06T01:04:00.227Z,1003.63
2019-05-06T01:05:00.209Z,1003.68
2019-05-06T01:06:00.216Z,1003.61
2019-05-06T01:07:00.187Z,1003.72
2019-05-06T01:08:00.178Z,1003.65
2019-05-06T01:09:00.164Z,1003.69
2019-05-06T01:10:00.155Z,1003.68
2019-05-06T01:11:00.160Z,1003.69
2019-05-06T01:12:00.134Z,1003.66
2019-05-06T01:13:00.122Z,1003.67
2019-05-06T01:14:00.108Z,1003.66
2019-05-06T01:15:00.098Z,1003.74
2019-05-06T01:16:00.102Z,1003.65
2019-05-06T01:17:00.074Z,1003.67
2019-05-06T01:18:00.066Z,1003.74
2019-05-06T01:19:00.053Z,1003.74
2019-05-06T01:20:00.046Z,1003.76
2019-05-06T01:21:00.045Z,1003.78
2019-05-06T01:22:00.018Z,1003.78
2019-05-06T01:23:00.008Z,1003.77
2019-05-06T01:23:59.996Z,1003.76
2019-05-06T01:24:59.987Z,1003.80
2019-05-06T01:25:59.991Z,1003.77
2019-05-06T01:26:59.966Z,1003.76
2019-05-06T01:27:59.952Z,1003.82
2019-05-06T01:28:59.944Z,1003.81
2019-05-06T01:29:59.928Z,1003.82
2019-05-06T01:30:59.944Z,1003.83
2019-05-06T01:31:59.906Z,1003.81
2019-05-06T01:32:59.896Z,1003.86
2019-05-06T01:33:59.884Z,1003.84
2019-05-06T01:34:59.875Z,1003.83
2019-05-06T01:35:59.870Z,1003.86
2019-05-06T01:36:59.878Z,1003.85
2019-05-06T01:37:59.839Z,1003.84
2019-05-06T01:38:59.828Z,1003.85
2019-05-06T01:39:59.820Z,1003.86
2019-05-06T01:40:59.806Z,1003.90
2019-05-06T01:41:59.796Z,1003.89
2019-05-06T01:42:59.812Z,1003.88
2019-05-06T01:43:59.772Z,1003.87
2019-05-06T01:44:59.760Z,1003.90
2019-05-06T01:45:59.750Z,1003.87
2019-05-06T01:46:59.737Z,1003.91
2019-05-06T01:47:59.730Z,1003.90
2019-05-06T01:48:59.737Z,1003.91
2019-05-06T01:49:59.703Z,1003.90
2019-05-06T01:50:59.691Z,1003.94
2019-05-06T01:51:59.680Z,1003.88
2019-05-06T01:52:59.670Z,1003.91
2019-05-06T01:53:59.689Z,1003.95
2019-05-06T01:54:59.646Z,1003.94
2019-05-06T01:55:59.635Z,1003.93
2019-05-06T01:56:59.624Z,1003.93
2019-05-06T01:57:59.614Z,1003.94
2019-05-06T01:58:59.604Z,1003.99
2019-05-06T01:59:59.618Z,1004.03
2019-05-06T02:00:59.580Z,1003.97
2019-05-06T02:02:01.160Z,1003.94
2019-05-06T02:02:59.558Z,1004.03
2019-05-06T02:03:59.553Z,1004.01
2019-05-06T02:04:59.536Z,1004.05
2019-05-06T02:05:59.541Z,1004.04
2019-05-06T02:06:59.514Z,1004.03
2019-05-06T02:07:59.504Z,1004.01
2019-05-06T02:08:59.489Z,1004.05
2019-05-06T02:09:59.480Z,1004.05
2019-05-06T02:10:59.487Z,1004.07
2019-05-06T02:11:59.457Z,1004.05
2019-05-06T02:12:59.445Z,1004.05
2019-05-06T02:13:59.435Z,1004.10
2019-05-06T02:14:59.426Z,1004.09
2019-05-06T02:15:59.441Z,1004.07
2019-05-06T02:16:59.399Z,1004.11
2019-05-06T02:17:59.387Z,1004.13
2019-05-06T02:18:59.378Z,1004.10
2019-05-06T02:19:59.364Z,1004.15
2019-05-06T02:20:59.365Z,1004.18
2019-05-06T02:21:59.364Z,1004.15
2019-05-06T02:22:59.332Z,1004.15
2019-05-06T02:23:59.319Z,1004.17
2019-05-06T02:24:59.317Z,1004.19
2019-05-06T02:25:59.298Z,1004.20
2019-05-06T02:26:59.304Z,1004.22
2019-05-06T02:27:59.275Z,1004.20
2019-05-06T02:28:59.263Z,1004.22
2019-05-06T02:29:59.251Z,1004.23
2019-05-06T02:30:59.240Z,1004.19
2019-05-06T02:32:16.167Z,1004.20
2019-05-06T02:33:00.219Z,1004.25
2019-05-06T02:33:59.207Z,1004.22
2019-05-06T02:34:59.199Z,1004.21
2019-05-06T02:35:59.189Z,1004.19
2019-05-06T02:36:59.206Z,1004.22
2019-05-06T02:37:59.168Z,1004.23
2019-05-06T02:38:59.151Z,1004.28
2019-05-06T02:39:59.142Z,1004.23
2019-05-06T02:40:59.128Z,1004.27
2019-05-06T02:41:59.123Z,1004.26
2019-05-06T02:42:59.126Z,1004.26
2019-05-06T02:43:59.099Z,1004.25
2019-05-06T02:44:59.084Z,1004.30
2019-05-06T02:45:59.078Z,1004.30
2019-05-06T02:46:59.066Z,1004.29
2019-05-06T02:47:59.068Z,1004.34
2019-05-06T02:48:59.039Z,1004.29
2019-05-06T02:49:59.030Z,1004.33
2019-05-06T02:50:59.033Z,1004.32
2019-05-06T02:51:59.006Z,1004.29
2019-05-06T02:52:59.031Z,1004.27
2019-05-06T02:53:58.984Z,1004.28
2019-05-06T02:54:58.969Z,1004.27
2019-05-06T02:55:58.961Z,1004.27
2019-05-06T02:56:58.948Z,1004.31
2019-05-06T02:57:58.938Z,1004.31
2019-05-06T02:58:58.955Z,1004.36
2019-05-06T02:59:58.921Z,1004.37
2019-05-06T03:00:58.904Z,1004.35
2019-05-06T03:01:58.892Z,1004.36
2019-05-06T03:02:58.880Z,1004.38
2019-05-06T03:03:58.869Z,1004.37
2019-05-06T03:04:58.908Z,1004.39
2019-05-06T03:05:58.852Z,1004.33
2019-05-06T03:06:58.835Z,1004.36
2019-05-06T03:07:58.823Z,1004.36
2019-05-06T03:08:58.811Z,1004.35
2019-05-06T03:09:58.803Z,1004.37
2019-05-06T03:10:58.805Z,1004.33
2019-05-06T03:11:58.812Z,1004.38
2019-05-06T03:12:58.768Z,1004.35
2019-05-06T03:13:58.755Z,1004.34
2019-05-06T03:14:58.749Z,1004.37
2019-05-06T03:15:58.749Z,1004.37
2019-05-06T03:16:58.727Z,1004.34
2019-05-06T03:17:58.715Z,1004.36
2019-05-06T03:18:58.712Z,1004.38
2019-05-06T03:19:58.687Z,1004.35
2019-05-06T03:20:58.703Z,1004.35
2019-05-06T03:21:58.670Z,1004.37
2019-05-06T03:22:58.653Z,1004.34
2019-05-06T03:23:58.640Z,1004.35
2019-05-06T03:24:58.630Z,1004.34
2019-05-06T03:25:58.641Z,1004.32
2019-05-06T03:26:58.606Z,1004.39
2019-05-06T03:27:58.600Z,1004.40
2019-05-06T03:28:58.586Z,1004.32
2019-05-06T03:29:58.581Z,1004.41
2019-05-06T03:30:58.593Z,1004.36
2019-05-06T03:31:58.552Z,1004.39
2019-05-06T03:33:35.401Z,1004.38
2019-05-06T03:34:22.497Z,1004.40
2019-05-06T03:35:22.932Z,1004.38
2019-05-06T03:36:13.751Z,1004.42
2019-05-06T03:36:59.493Z,1004.43
2019-05-06T03:37:58.482Z,1004.40
2019-05-06T03:38:58.473Z,1004.43
2019-05-06T03:39:58.462Z,1004.45
2019-05-06T03:40:58.449Z,1004.51
2019-05-06T03:41:58.465Z,1004.48
2019-05-06T03:42:58.448Z,1004.45
2019-05-06T03:43:58.420Z,1004.48
2019-05-06T03:44:58.402Z,1004.53
2019-05-06T03:45:58.396Z,1004.51
2019-05-06T03:46:58.381Z,1004.56
2019-05-06T03:47:58.397Z,1004.58
2019-05-06T03:48:58.358Z,1004.56
2019-05-06T03:49:58.354Z,1004.58
2019-05-06T03:50:58.335Z,1004.57
2019-05-06T03:51:58.325Z,1004.61
2019-05-06T03:52:58.312Z,1004.57
2019-05-06T03:53:58.331Z,1004.59
2019-05-06T03:54:58.289Z,1004.64
2019-05-06T03:55:58.282Z,1004.64
2019-05-06T03:56:58.265Z,1004.58
2019-05-06T03:57:58.255Z,1004.64
2019-05-06T03:58:58.246Z,1004.65
2019-05-06T03:59:58.263Z,1004.64
2019-05-06T04:00:58.222Z,1004.68
2019-05-06T04:01:58.211Z,1004.67
2019-05-06T04:02:58.203Z,1004.65
2019-05-06T04:03:58.204Z,1004.65
2019-05-06T04:04:58.183Z,1004.68
2019-05-06T04:05:58.180Z,1004.68
2019-05-06T04:06:58.158Z,1004.68
2019-05-06T04:07:58.143Z,1004.65
2019-05-06T04:08:58.132Z,1004.65
2019-05-06T04:09:58.119Z,1004.64
2019-05-06T04:10:58.126Z,1004.68
2019-05-06T04:11:58.100Z,1004.68
2019-05-06T04:12:58.085Z,1004.68
2019-05-06T04:13:58.074Z,1004.67
2019-05-06T04:14:58.062Z,1004.66
2019-05-06T04:15:58.079Z,1004.67
2019-05-06T04:16:58.047Z,1004.69
2019-05-06T04:17:58.027Z,1004.72
2019-05-06T04:18:58.040Z,1004.68
2019-05-06T04:19:58.006Z,1004.69
2019-05-06T04:20:57.995Z,1004.71
2019-05-06T04:21:58.004Z,1004.70
2019-05-06T04:22:57.978Z,1004.68
2019-05-06T04:23:57.964Z,1004.71
2019-05-06T04:24:57.952Z,1004.72
2019-05-06T04:25:57.939Z,1004.76
2019-05-06T04:26:57.944Z,1004.73
2019-05-06T04:27:57.920Z,1004.74
2019-05-06T04:28:57.904Z,1004.79
2019-05-06T04:29:57.892Z,1004.77
2019-05-06T04:30:57.883Z,1004.77
2019-05-06T04:31:57.897Z,1004.81
2019-05-06T04:32:57.859Z,1004.83
2019-05-06T04:34:12.333Z,1004.85
2019-05-06T04:34:58.835Z,1004.86
2019-05-06T04:35:57.824Z,1004.82
2019-05-06T04:36:57.815Z,1004.87
2019-05-06T04:37:57.821Z,1004.86
2019-05-06T04:38:57.790Z,1004.91
2019-05-06T04:39:57.779Z,1004.91
2019-05-06T04:40:57.767Z,1004.93
2019-05-06T04:41:57.755Z,1004.93
2019-05-06T04:42:57.772Z,1004.92
2019-05-06T04:43:57.732Z,1004.88
2019-05-06T04:44:57.728Z,1004.89
2019-05-06T04:45:57.721Z,1004.86
2019-05-06T04:46:57.703Z,1004.90
2019-05-06T04:47:57.687Z,1004.95
2019-05-06T04:48:57.709Z,1004.95
2019-05-06T04:49:58.590Z,1004.92
2019-05-06T04:50:57.652Z,1004.96
2019-05-06T04:51:57.642Z,1004.96
2019-05-06T04:52:57.630Z,1004.97
2019-05-06T04:53:57.624Z,1004.99
2019-05-06T04:54:57.625Z,1004.98
2019-05-06T04:55:57.597Z,1005.03
2019-05-06T04:56:57.588Z,1005.03
2019-05-06T04:57:57.581Z,1005.03
2019-05-06T04:58:57.561Z,1005.01
2019-05-06T04:59:57.583Z,1005.02
2019-05-06T05:00:57.541Z,1004.99
2019-05-06T05:01:57.539Z,1004.99
2019-05-06T05:02:57.518Z,1004.99
2019-05-06T05:03:57.513Z,1005.02
2019-05-06T05:04:57.495Z,1004.99
2019-05-06T05:05:57.502Z,1005.00
2019-05-06T05:06:57.473Z,1005.01
2019-05-06T05:07:57.471Z,1005.00
2019-05-06T05:08:57.453Z,1005.03
2019-05-06T05:09:57.439Z,1005.06
2019-05-06T05:10:57.458Z,1005.08
2019-05-06T05:11:57.416Z,1005.12
2019-05-06T05:12:57.408Z,1005.11
2019-05-06T05:13:57.404Z,1005.12
2019-05-06T05:14:58.094Z,1005.10
2019-05-06T05:15:57.387Z,1005.13
2019-05-06T05:16:57.358Z,1005.14
2019-05-06T05:17:57.346Z,1005.10
2019-05-06T05:18:57.335Z,1005.12
2019-05-06T05:19:57.325Z,1005.10
2019-05-06T05:20:57.346Z,1005.11
2019-05-06T05:21:57.302Z,1005.07
2019-05-06T05:22:57.300Z,1005.09
2019-05-06T05:23:57.282Z,1005.07
2019-05-06T05:24:57.271Z,1005.11
2019-05-06T05:25:57.256Z,1005.11
2019-05-06T05:26:57.273Z,1005.10
2019-05-06T05:27:57.233Z,1005.12
2019-05-06T05:28:57.223Z,1005.15
2019-05-06T05:29:57.211Z,1005.17
2019-05-06T05:30:57.201Z,1005.11
2019-05-06T05:31:57.187Z,1005.13
2019-05-06T05:32:57.195Z,1005.13
2019-05-06T05:33:57.164Z,1005.11
2019-05-06T05:34:57.153Z,1005.19
2019-05-06T05:35:57.144Z,1005.13
2019-05-06T05:36:57.130Z,1005.18
2019-05-06T05:37:57.147Z,1005.15
2019-05-06T05:38:57.108Z,1005.11
2019-05-06T05:39:57.096Z,1005.16
2019-05-06T05:41:05.631Z,1005.15
2019-05-06T05:41:57.631Z,1005.16
2019-05-06T05:42:57.072Z,1005.11
2019-05-06T05:43:57.084Z,1005.10
2019-05-06T05:44:57.042Z,1005.15
2019-05-06T05:46:06.666Z,1005.13
2019-05-06T05:46:57.018Z,1005.15
2019-05-06T05:47:57.011Z,1005.20
2019-05-06T05:48:56.995Z,1005.16
2019-05-06T05:49:57.013Z,1005.17
2019-05-06T05:50:56.973Z,1005.10
2019-05-06T05:51:56.964Z,1005.17
2019-05-06T05:52:56.949Z,1005.21
2019-05-06T05:53:56.940Z,1005.17
2019-05-06T05:54:56.930Z,1005.16
2019-05-06T05:55:56.931Z,1005.14
2019-05-06T05:56:56.904Z,1005.15
2019-05-06T05:57:56.894Z,1005.13
2019-05-06T05:58:56.887Z,1005.17
2019-05-06T05:59:56.875Z,1005.14
2019-05-06T06:00:56.878Z,1005.14
2019-05-06T06:01:56.850Z,1005.16
2019-05-06T06:02:56.836Z,1005.14
2019-05-06T06:03:56.830Z,1005.17
2019-05-06T06:04:57.702Z,1005.13
2019-05-06T06:05:56.821Z,1005.19
2019-05-06T06:06:56.796Z,1005.15
2019-05-06T06:07:56.778Z,1005.15
2019-05-06T06:08:56.769Z,1005.16
2019-05-06T06:09:56.757Z,1005.16
2019-05-06T06:10:56.771Z,1005.13
2019-05-06T06:11:56.867Z,1005.17
2019-05-06T06:12:56.726Z,1005.18
2019-05-06T06:13:56.711Z,1005.18
2019-05-06T06:14:56.710Z,1005.22
2019-05-06T06:15:56.713Z,1005.19
2019-05-06T06:16:56.676Z,1005.21
2019-05-06T06:17:56.665Z,1005.15
2019-05-06T06:18:56.653Z,1005.13
2019-05-06T06:19:56.640Z,1005.08
2019-05-06T06:20:56.631Z,1005.11
2019-05-06T06:21:56.637Z,1005.09
2019-05-06T06:22:56.606Z,1005.10
2019-05-06T06:23:58.190Z,1005.11
2019-05-06T06:24:56.584Z,1005.13
2019-05-06T06:25:56.580Z,1005.10
2019-05-06T06:26:56.581Z,1005.12
2019-05-06T06:27:56.550Z,1005.11
2019-05-06T06:28:56.542Z,1005.09
2019-05-06T06:29:56.528Z,1005.13
2019-05-06T06:30:56.515Z,1005.14
2019-05-06T06:31:56.535Z,1005.16
2019-05-06T06:32:56.494Z,1005.15
2019-05-06T06:33:56.490Z,1005.16
2019-05-06T06:35:08.304Z,1005.16
2019-05-06T06:35:57.457Z,1005.15
2019-05-06T06:36:56.448Z,1005.17
2019-05-06T06:37:56.472Z,1005.18
2019-05-06T06:38:56.428Z,1005.17
2019-05-06T06:39:56.414Z,1005.19
2019-05-06T06:40:56.409Z,1005.19
2019-05-06T06:41:56.396Z,1005.28
2019-05-06T06:42:56.409Z,1005.22
2019-05-06T06:43:56.373Z,1005.22
2019-05-06T06:44:56.386Z,1005.15
2019-05-06T06:45:56.349Z,1005.17
2019-05-06T06:46:56.336Z,1005.18
2019-05-06T06:47:56.325Z,1005.18
2019-05-06T06:48:56.346Z,1005.20
2019-05-06T06:49:56.302Z,1005.13
2019-05-06T06:50:56.291Z,1005.12
2019-05-06T06:51:56.279Z,1005.12
2019-05-06T06:52:56.269Z,1005.10
2019-05-06T06:53:56.260Z,1005.10
2019-05-06T06:54:56.268Z,1005.10
2019-05-06T06:55:56.236Z,1005.12
2019-05-06T06:57:06.151Z,1005.12
2019-05-06T06:57:57.208Z,1005.03
2019-05-06T06:58:56.199Z,1005.05
2019-05-06T06:59:56.217Z,1005.05
2019-05-06T07:00:56.177Z,1005.06
2019-05-06T07:01:56.167Z,1005.05
2019-05-06T07:02:56.154Z,1005.08
2019-05-06T07:03:56.142Z,1005.07
2019-05-06T07:04:56.130Z,1005.11
2019-05-06T07:05:56.138Z,1005.05
2019-05-06T07:06:56.106Z,1005.06
2019-05-06T07:07:56.097Z,1005.07
2019-05-06T07:08:56.085Z,1005.09
2019-05-06T07:09:56.075Z,1005.03
2019-05-06T07:10:56.084Z,1005.05
2019-05-06T07:11:56.052Z,1005.03
2019-05-06T07:12:56.039Z,1005.04
2019-05-06T07:13:56.032Z,1005.07
2019-05-06T07:14:56.016Z,1005.07
2019-05-06T07:15:56.027Z,1005.10
2019-05-06T07:16:55.993Z,1005.10
2019-05-06T07:17:55.981Z,1005.14
2019-05-06T07:18:55.971Z,1005.11
2019-05-06T07:19:55.962Z,1005.10
2019-05-06T07:20:55.970Z,1005.11
2019-05-06T07:21:55.938Z,1005.16
2019-05-06T07:22:55.938Z,1005.07
2019-05-06T07:23:55.914Z,1005.09
2019-05-06T07:24:55.902Z,1005.11
2019-05-06T07:25:55.909Z,1005.11
2019-05-06T07:26:55.879Z,1005.05
2019-05-06T07:27:55.870Z,1005.07
2019-05-06T07:28:55.861Z,1005.07
2019-05-06T07:29:55.847Z,1005.05
2019-05-06T07:30:55.870Z,1005.08
2019-05-06T07:31:55.824Z,1005.02
2019-05-06T07:32:55.817Z,1004.98
2019-05-06T07:33:55.799Z,1004.97
2019-05-06T07:34:55.790Z,1004.95
2019-05-06T07:35:55.786Z,1004.93
2019-05-06T07:36:55.786Z,1004.99
2019-05-06T07:37:55.754Z,1005.00
2019-05-06T07:38:55.743Z,1005.02
2019-05-06T07:39:55.737Z,1005.03
2019-05-06T07:40:55.720Z,1005.09
2019-05-06T07:41:55.730Z,1005.09
2019-05-06T07:42:55.701Z,1005.08
2019-05-06T07:43:55.685Z,1005.06
2019-05-06T07:44:55.676Z,1005.08
2019-05-06T07:45:55.662Z,1005.05
2019-05-06T07:46:55.668Z,1005.01
2019-05-06T07:47:55.647Z,1005.07
2019-05-06T07:48:55.630Z,1005.07
2019-05-06T07:49:55.635Z,1005.08
2019-05-06T07:50:55.606Z,1005.07
2019-05-06T07:51:55.624Z,1005.05
2019-05-06T07:52:55.584Z,1004.98
2019-05-06T07:53:55.573Z,1004.99
2019-05-06T07:54:55.563Z,1004.92
2019-05-06T07:55:55.563Z,1005.03
2019-05-06T07:56:55.556Z,1005.07
2019-05-06T07:57:55.558Z,1005.07
2019-05-06T07:58:55.515Z,1005.10
2019-05-06T07:59:55.505Z,1005.04
2019-05-06T08:00:55.492Z,1005.06
2019-05-06T08:01:55.488Z,1005.06
2019-05-06T08:02:55.469Z,1005.07
2019-05-06T08:03:55.488Z,1005.06
2019-05-06T08:04:55.447Z,1005.04
2019-05-06T08:05:58.601Z,1004.98
2019-05-06T08:06:55.426Z,1005.02
2019-05-06T08:07:55.413Z,1005.06
2019-05-06T08:08:55.402Z,1005.05
2019-05-06T08:09:55.407Z,1005.12
2019-05-06T08:10:55.381Z,1005.04
2019-05-06T08:11:55.366Z,1005.10
2019-05-06T08:12:55.360Z,1005.07
2019-05-06T08:13:55.350Z,1004.98
2019-05-06T08:14:55.363Z,1005.10
2019-05-06T08:15:55.333Z,1005.11
2019-05-06T08:16:55.310Z,1005.08
2019-05-06T08:17:55.298Z,1005.06
2019-05-06T08:18:55.287Z,1005.00
2019-05-06T08:19:55.274Z,1005.05
2019-05-06T08:20:55.286Z,1005.04
2019-05-06T08:21:55.253Z,1005.08
2019-05-06T08:22:56.613Z,1005.00
2019-05-06T08:23:55.230Z,1005.03
2019-05-06T08:24:55.223Z,1005.03
2019-05-06T08:26:09.066Z,1005.02
2019-05-06T08:26:56.705Z,1005.00
2019-05-06T08:27:55.189Z,1005.04
2019-05-06T08:28:56.176Z,1005.01
2019-05-06T08:29:55.166Z,1005.14
2019-05-06T08:30:55.173Z,1005.08
2019-05-06T08:31:55.145Z,1005.11
2019-05-06T08:32:55.138Z,1005.03
2019-05-06T08:33:55.125Z,1005.03
2019-05-06T08:34:55.113Z,1005.05
2019-05-06T08:36:08.918Z,1004.98
2019-05-06T08:36:56.087Z,1005.01
2019-05-06T08:37:55.075Z,1004.96
2019-05-06T08:38:55.065Z,1004.86
2019-05-06T08:39:55.083Z,1004.90
2019-05-06T08:40:55.062Z,1004.87
2019-05-06T08:41:55.033Z,1004.91
2019-05-06T08:42:55.025Z,1004.86
2019-05-06T08:43:55.010Z,1004.95
2019-05-06T08:44:55.000Z,1004.93
2019-05-06T08:45:55.013Z,1004.86
2019-05-06T08:46:54.979Z,1004.92
2019-05-06T08:47:54.964Z,1004.95
2019-05-06T08:48:54.954Z,1004.94
2019-05-06T08:49:54.949Z,1004.93
2019-05-06T08:50:54.929Z,1004.91
2019-05-06T08:51:54.953Z,1004.90
2019-05-06T08:52:54.909Z,1004.87
2019-05-06T08:53:54.895Z,1004.83
2019-05-06T08:54:54.883Z,1004.89
2019-05-06T08:55:54.872Z,1004.89
2019-05-06T08:56:54.863Z,1004.88
2019-05-06T08:57:54.869Z,1004.86
2019-05-06T08:58:54.844Z,1004.90
2019-05-06T08:59:54.828Z,1004.85
2019-05-06T09:00:57.518Z,1004.84
2019-05-06T09:01:54.805Z,1004.88
2019-05-06T09:02:54.824Z,1004.90
2019-05-06T09:04:08.861Z,1004.90
2019-05-06T09:04:55.771Z,1004.91
2019-05-06T09:05:54.759Z,1004.97
2019-05-06T09:06:54.749Z,1004.86
2019-05-06T09:07:54.735Z,1004.85
2019-05-06T09:08:56.813Z,1004.80
2019-05-06T09:09:54.713Z,1004.87
2019-05-06T09:10:54.704Z,1004.81
2019-05-06T09:11:54.690Z,1004.89
2019-05-06T09:12:54.682Z,1004.81
2019-05-06T09:13:54.666Z,1004.81
2019-05-06T09:14:54.674Z,1004.80
2019-05-06T09:15:54.643Z,1004.87
2019-05-06T09:16:54.632Z,1004.82
2019-05-06T09:17:54.628Z,1004.83
2019-05-06T09:18:54.613Z,1004.78
2019-05-06T09:19:54.635Z,1004.78
2019-05-06T09:20:54.584Z,1004.75
2019-05-06T09:21:54.575Z,1004.74
2019-05-06T09:22:54.564Z,1004.74
2019-05-06T09:23:54.550Z,1004.72
2019-05-06T09:24:54.543Z,1004.85
2019-05-06T09:25:54.547Z,1004.78
2019-05-06T09:26:54.516Z,1004.72
2019-05-06T09:27:54.506Z,1004.74
2019-05-06T09:28:54.495Z,1004.80
2019-05-06T09:29:54.484Z,1004.78
2019-05-06T09:30:54.486Z,1004.74
2019-05-06T09:31:54.461Z,1004.75
2019-05-06T09:32:54.447Z,1004.78
2019-05-06T09:33:54.436Z,1004.77
2019-05-06T09:34:54.428Z,1004.76
2019-05-06T09:35:54.437Z,1004.76
2019-05-06T09:36:55.017Z,1004.75
2019-05-06T09:37:54.392Z,1004.78
2019-05-06T09:38:54.380Z,1004.78
2019-05-06T09:39:54.373Z,1004.82
2019-05-06T09:40:54.383Z,1004.82
2019-05-06T09:41:58.015Z,1004.87
2019-05-06T09:42:54.332Z,1004.89
2019-05-06T09:43:54.323Z,1004.83
2019-05-06T09:44:54.627Z,1004.87
2019-05-06T09:45:54.300Z,1004.82
2019-05-06T09:46:54.322Z,1004.81
2019-05-06T09:47:54.278Z,1004.80
2019-05-06T09:48:54.265Z,1004.86
2019-05-06T09:49:54.253Z,1004.83
2019-05-06T09:50:54.245Z,1004.82
2019-05-06T09:51:54.232Z,1004.81
2019-05-06T09:52:54.243Z,1004.75
2019-05-06T09:53:54.208Z,1004.78
2019-05-06T09:54:54.198Z,1004.85
2019-05-06T09:55:54.188Z,1004.79
2019-05-06T09:56:54.182Z,1004.83
2019-05-06T09:57:54.198Z,1004.84
2019-05-06T09:58:54.153Z,1004.83
2019-05-06T09:59:54.141Z,1004.78
2019-05-06T10:00:54.128Z,1004.83
2019-05-06T10:01:54.732Z,1004.85
2019-05-06T10:02:54.110Z,1004.86
2019-05-06T10:03:54.123Z,1004.78
2019-05-06T10:04:54.085Z,1004.85
2019-05-06T10:05:54.072Z,1004.87
2019-05-06T10:06:59.068Z,1004.84
2019-05-06T10:07:55.049Z,1004.86
2019-05-06T10:08:54.041Z,1004.85
2019-05-06T10:09:54.057Z,1004.85
2019-05-06T10:10:59.490Z,1004.85
2019-05-06T10:11:55.011Z,1004.82
2019-05-06T10:12:54.000Z,1004.87
2019-05-06T10:13:53.981Z,1004.83
2019-05-06T10:14:53.977Z,1004.84
2019-05-06T10:15:57.163Z,1004.76
2019-05-06T10:16:53.948Z,1004.82
2019-05-06T10:17:53.938Z,1004.83
2019-05-06T10:18:53.926Z,1004.84
2019-05-06T10:19:53.916Z,1004.84
2019-05-06T10:20:53.915Z,1004.87
2019-05-06T10:21:53.893Z,1004.83
2019-05-06T10:22:53.880Z,1004.87
2019-05-06T10:23:53.871Z,1004.86
2019-05-06T10:24:53.854Z,1004.93
2019-05-06T10:25:53.859Z,1004.89
2019-05-06T10:26:53.831Z,1004.90
2019-05-06T10:27:53.820Z,1004.88
2019-05-06T10:28:53.826Z,1004.87
2019-05-06T10:29:53.797Z,1004.89
2019-05-06T10:30:53.818Z,1004.86
2019-05-06T10:31:53.774Z,1004.88
2019-05-06T10:32:53.761Z,1004.91
2019-05-06T10:33:53.752Z,1004.88
2019-05-06T10:34:53.747Z,1004.93
2019-05-06T10:35:53.732Z,1004.92
2019-05-06T10:36:53.734Z,1004.89
2019-05-06T10:37:53.709Z,1004.92
2019-05-06T10:38:53.697Z,1004.87
2019-05-06T10:39:53.682Z,1004.86
2019-05-06T10:41:00.892Z,1004.82
2019-05-06T10:41:54.676Z,1004.87
2019-05-06T10:42:53.656Z,1004.87
2019-05-06T10:43:53.641Z,1004.84
2019-05-06T10:44:53.627Z,1004.87
2019-05-06T10:45:53.614Z,1004.83
2019-05-06T10:46:53.622Z,1004.86
2019-05-06T10:47:53.867Z,1004.78
2019-05-06T10:48:53.603Z,1004.81
2019-05-06T10:49:53.572Z,1004.78
2019-05-06T10:50:53.556Z,1004.83
2019-05-06T10:51:53.562Z,1004.79
2019-05-06T10:52:53.534Z,1004.81
2019-05-06T10:53:53.523Z,1004.78
2019-05-06T10:54:53.511Z,1004.81
2019-05-06T10:55:53.815Z,1004.82
2019-05-06T10:56:57.075Z,1004.81
2019-05-06T10:57:53.486Z,1004.74
2019-05-06T10:58:53.466Z,1004.87
2019-05-06T10:59:53.454Z,1004.76
2019-05-06T11:00:53.447Z,1004.58
2019-05-06T11:01:53.433Z,1004.66
2019-05-06T11:02:53.440Z,1004.53
2019-05-06T11:03:53.412Z,1004.60
2019-05-06T11:04:53.399Z,1004.62
2019-05-06T11:05:53.822Z,1004.64
2019-05-06T11:06:53.378Z,1004.68
2019-05-06T11:07:53.397Z,1004.66
2019-05-06T11:08:53.353Z,1004.62
2019-05-06T11:09:53.461Z,1004.63
2019-05-06T11:10:53.698Z,1004.70
2019-05-06T11:11:53.316Z,1004.63
2019-05-06T11:12:53.306Z,1004.65
2019-05-06T11:13:53.341Z,1004.61
2019-05-06T11:14:55.789Z,1004.69
2019-05-06T11:15:55.659Z,1004.68
2019-05-06T11:16:53.260Z,1004.66
2019-05-06T11:17:53.251Z,1004.60
2019-05-06T11:18:53.616Z,1004.72
2019-05-06T11:19:53.412Z,1004.65
2019-05-06T11:20:56.361Z,1004.65
2019-05-06T11:21:53.296Z,1004.63
2019-05-06T11:22:53.195Z,1004.91
2019-05-06T11:23:53.184Z,1004.65
2019-05-06T11:24:53.172Z,1004.60
2019-05-06T11:25:53.183Z,1004.51
2019-05-06T11:26:53.487Z,1004.57
2019-05-06T11:27:53.141Z,1004.53
2019-05-06T11:28:53.131Z,1004.53
2019-05-06T11:29:53.215Z,1004.54
2019-05-06T11:30:53.123Z,1004.47
2019-05-06T11:31:54.319Z,1004.48
2019-05-06T11:32:54.842Z,1004.50
2019-05-06T11:33:53.071Z,1004.49
2019-05-06T11:34:53.073Z,1004.44
2019-05-06T11:35:53.750Z,1004.52
2019-05-06T11:36:53.039Z,1004.50
2019-05-06T11:37:54.350Z,1004.47
2019-05-06T11:38:53.017Z,1004.45
2019-05-06T11:39:53.284Z,1004.45
2019-05-06T11:40:53.358Z,1004.44
2019-05-06T11:42:14.450Z,1004.46
2019-05-06T11:42:53.972Z,1004.42
2019-05-06T11:43:52.964Z,1004.45
2019-05-06T11:44:53.276Z,1004.48
2019-05-06T11:45:52.955Z,1004.43
2019-05-06T11:46:52.929Z,1004.44
2019-05-06T11:47:55.802Z,1004.49
2019-05-06T11:48:52.934Z,1004.44
2019-05-06T11:49:55.957Z,1004.49
2019-05-06T11:50:52.904Z,1004.44
2019-05-06T11:51:52.870Z,1004.45
2019-05-06T11:52:55.788Z,1004.38
2019-05-06T11:53:54.170Z,1004.35
2019-05-06T11:54:53.093Z,1004.32
2019-05-06T11:55:54.783Z,1004.33
2019-05-06T11:56:57.787Z,1004.31
2019-05-06T11:57:53.801Z,1004.36
2019-05-06T11:58:53.315Z,1004.37
2019-05-06T11:59:53.004Z,1004.35
2019-05-06T12:00:52.767Z,1004.41
2019-05-06T12:01:53.389Z,1004.43
2019-05-06T12:02:53.378Z,1004.39
2019-05-06T12:03:52.736Z,1004.33
2019-05-06T12:04:53.054Z,1004.32